sensor_id;sensor_type;location;lat;lon;timestamp;P1;durP1;ratioP1;P2;durP2;ratioP2
11535;SDS011;5824;49.336;8.652;2023-11-21T00:02:14;3.83;;;1.63;;
11535;SDS011;5824;49.336;8.652;2023-11-21T00:04:40;10.40;;;2.80;;
11535;SDS011;5824;49.336;8.652;2023-11-21T00:07:05;4.50;;;1.90;;
11535;SDS011;5824;49.336;8.652;2023-11-21T00:09:31;5.67;;;1.90;;
11535;SDS011;5824;49.336;8.652;2023-11-21T00:11:57;12.80;;;2.20;;
11535;SDS011;5824;49.336;8.652;2023-11-21T00:14:24;5.83;;;2.23;;
11535;SDS011;5824;49.336;8.652;2023-11-21T00:16:50;5.30;;;1.80;;
11535;SDS011;5824;49.336;8.652;2023-11-21T00:19:15;3.93;;;2.00;;
11535;SDS011;5824;49.336;8.652;2023-11-21T00:21:41;4.00;;;1.90;;
11535;SDS011;5824;49.336;8.652;2023-11-21T00:24:09;6.27;;;2.10;;
11535;SDS011;5824;49.336;8.652;2023-11-21T00:26:34;4.67;;;1.67;;
11535;SDS011;5824;49.336;8.652;2023-11-21T00:29:02;2.80;;;1.77;;
11535;SDS011;5824;49.336;8.652;2023-11-21T00:31:28;6.40;;;1.60;;
11535;SDS011;5824;49.336;8.652;2023-11-21T00:33:55;2.60;;;1.73;;
11535;SDS011;5824;49.336;8.652;2023-11-21T00:36:21;2.90;;;1.70;;
11535;SDS011;5824;49.336;8.652;2023-11-21T00:38:46;2.20;;;1.50;;
11535;SDS011;5824;49.336;8.652;2023-11-21T00:41:13;7.40;;;2.23;;
11535;SDS011;5824;49.336;8.652;2023-11-21T00:43:38;7.30;;;2.23;;
11535;SDS011;5824;49.336;8.652;2023-11-21T00:46:05;12.03;;;2.00;;
11535;SDS011;5824;49.336;8.652;2023-11-21T00:48:32;3.90;;;1.80;;
11535;SDS011;5824;49.336;8.652;2023-11-21T00:50:58;4.20;;;1.63;;
11535;SDS011;5824;49.336;8.652;2023-11-21T00:53:24;10.03;;;1.87;;
11535;SDS011;5824;49.336;8.652;2023-11-21T00:55:49;4.10;;;1.60;;
11535;SDS011;5824;49.336;8.652;2023-11-21T00:58:15;6.17;;;1.90;;
11535;SDS011;5824;49.336;8.652;2023-11-21T01:00:40;5.83;;;1.80;;
11535;SDS011;5824;49.336;8.652;2023-11-21T01:03:06;4.37;;;1.73;;
11535;SDS011;5824;49.336;8.652;2023-11-21T01:05:32;7.80;;;2.10;;
11535;SDS011;5824;49.336;8.652;2023-11-21T01:07:59;6.40;;;1.73;;
11535;SDS011;5824;49.336;8.652;2023-11-21T01:10:24;12.37;;;2.17;;
11535;SDS011;5824;49.336;8.652;2023-11-21T01:12:50;2.77;;;1.60;;
11535;SDS011;5824;49.336;8.652;2023-11-21T01:15:16;4.80;;;1.80;;
11535;SDS011;5824;49.336;8.652;2023-11-21T01:17:41;2.50;;;1.73;;
11535;SDS011;5824;49.336;8.652;2023-11-21T01:20:07;2.90;;;1.60;;
11535;SDS011;5824;49.336;8.652;2023-11-21T01:22:37;4.60;;;2.07;;
11535;SDS011;5824;49.336;8.652;2023-11-21T01:25:04;2.97;;;1.33;;
11535;SDS011;5824;49.336;8.652;2023-11-21T01:27:32;10.03;;;1.90;;
11535;SDS011;5824;49.336;8.652;2023-11-21T01:29:59;2.83;;;1.77;;
11535;SDS011;5824;49.336;8.652;2023-11-21T01:32:24;11.00;;;1.80;;
11535;SDS011;5824;49.336;8.652;2023-11-21T01:34:50;1.83;;;1.53;;
11535;SDS011;5824;49.336;8.652;2023-11-21T01:37:16;3.23;;;1.60;;
11535;SDS011;5824;49.336;8.652;2023-11-21T01:39:42;5.33;;;2.10;;
11535;SDS011;5824;49.336;8.652;2023-11-21T01:42:11;10.33;;;1.97;;
11535;SDS011;5824;49.336;8.652;2023-11-21T01:44:38;5.10;;;1.57;;
11535;SDS011;5824;49.336;8.652;2023-11-21T01:47:05;3.00;;;1.70;;
11535;SDS011;5824;49.336;8.652;2023-11-21T01:49:34;3.70;;;1.80;;
11535;SDS011;5824;49.336;8.652;2023-11-21T01:52:00;7.10;;;1.73;;
11535;SDS011;5824;49.336;8.652;2023-11-21T01:54:27;5.43;;;1.80;;
11535;SDS011;5824;49.336;8.652;2023-11-21T01:56:56;4.03;;;1.50;;
11535;SDS011;5824;49.336;8.652;2023-11-21T01:59:28;2.20;;;1.40;;
11535;SDS011;5824;49.336;8.652;2023-11-21T02:01:58;4.03;;;1.53;;
11535;SDS011;5824;49.336;8.652;2023-11-21T02:04:24;4.07;;;1.60;;
11535;SDS011;5824;49.336;8.652;2023-11-21T02:06:50;3.87;;;1.70;;
11535;SDS011;5824;49.336;8.652;2023-11-21T02:09:15;3.70;;;1.73;;
11535;SDS011;5824;49.336;8.652;2023-11-21T02:11:42;4.30;;;1.77;;
11535;SDS011;5824;49.336;8.652;2023-11-21T02:14:08;2.80;;;1.60;;
11535;SDS011;5824;49.336;8.652;2023-11-21T02:16:34;5.40;;;1.80;;
11535;SDS011;5824;49.336;8.652;2023-11-21T02:19:01;5.30;;;1.50;;
11535;SDS011;5824;49.336;8.652;2023-11-21T02:21:28;3.67;;;1.87;;
11535;SDS011;5824;49.336;8.652;2023-11-21T02:23:55;4.23;;;1.87;;
11535;SDS011;5824;49.336;8.652;2023-11-21T02:26:21;3.93;;;1.70;;
11535;SDS011;5824;49.336;8.652;2023-11-21T02:28:46;7.90;;;1.97;;
11535;SDS011;5824;49.336;8.652;2023-11-21T02:31:12;3.30;;;1.60;;
11535;SDS011;5824;49.336;8.652;2023-11-21T02:33:38;12.17;;;1.90;;
11535;SDS011;5824;49.336;8.652;2023-11-21T02:36:04;3.07;;;1.73;;
11535;SDS011;5824;49.336;8.652;2023-11-21T02:38:30;4.37;;;1.83;;
11535;SDS011;5824;49.336;8.652;2023-11-21T02:40:57;4.80;;;1.50;;
11535;SDS011;5824;49.336;8.652;2023-11-21T02:43:24;2.17;;;1.50;;
11535;SDS011;5824;49.336;8.652;2023-11-21T02:45:49;3.60;;;1.60;;
11535;SDS011;5824;49.336;8.652;2023-11-21T02:48:15;3.67;;;1.80;;
11535;SDS011;5824;49.336;8.652;2023-11-21T02:50:40;6.00;;;1.60;;
11535;SDS011;5824;49.336;8.652;2023-11-21T02:53:08;2.70;;;1.67;;
11535;SDS011;5824;49.336;8.652;2023-11-21T02:55:36;1.40;;;1.30;;
11535;SDS011;5824;49.336;8.652;2023-11-21T02:58:01;2.50;;;1.23;;
11535;SDS011;5824;49.336;8.652;2023-11-21T03:00:28;3.83;;;1.40;;
11535;SDS011;5824;49.336;8.652;2023-11-21T03:02:56;2.97;;;1.60;;
11535;SDS011;5824;49.336;8.652;2023-11-21T03:05:22;10.70;;;1.80;;
11535;SDS011;5824;49.336;8.652;2023-11-21T03:07:47;3.07;;;1.50;;
11535;SDS011;5824;49.336;8.652;2023-11-21T03:10:13;1.87;;;1.20;;
11535;SDS011;5824;49.336;8.652;2023-11-21T03:12:39;4.63;;;1.47;;
11535;SDS011;5824;49.336;8.652;2023-11-21T03:15:05;5.07;;;1.20;;
11535;SDS011;5824;49.336;8.652;2023-11-21T03:17:31;2.80;;;1.20;;
11535;SDS011;5824;49.336;8.652;2023-11-21T03:19:58;5.30;;;1.70;;
11535;SDS011;5824;49.336;8.652;2023-11-21T03:22:24;3.87;;;1.37;;
11535;SDS011;5824;49.336;8.652;2023-11-21T03:24:50;7.43;;;1.30;;
11535;SDS011;5824;49.336;8.652;2023-11-21T03:27:15;2.67;;;1.50;;
11535;SDS011;5824;49.336;8.652;2023-11-21T03:29:41;3.10;;;1.50;;
11535;SDS011;5824;49.336;8.652;2023-11-21T03:32:07;2.40;;;1.47;;
11535;SDS011;5824;49.336;8.652;2023-11-21T03:34:32;3.43;;;1.70;;
11535;SDS011;5824;49.336;8.652;2023-11-21T03:36:58;10.53;;;1.50;;
11535;SDS011;5824;49.336;8.652;2023-11-21T03:39:23;2.47;;;1.20;;
11535;SDS011;5824;49.336;8.652;2023-11-21T03:41:50;1.60;;;1.20;;
11535;SDS011;5824;49.336;8.652;2023-11-21T03:44:17;2.10;;;1.83;;
11535;SDS011;5824;49.336;8.652;2023-11-21T03:46:43;2.77;;;1.50;;
11535;SDS011;5824;49.336;8.652;2023-11-21T03:49:09;4.20;;;1.60;;
11535;SDS011;5824;49.336;8.652;2023-11-21T03:51:35;2.60;;;1.50;;
11535;SDS011;5824;49.336;8.652;2023-11-21T03:54:01;3.30;;;1.63;;
11535;SDS011;5824;49.336;8.652;2023-11-21T03:56:28;3.07;;;1.20;;
11535;SDS011;5824;49.336;8.652;2023-11-21T03:58:53;3.43;;;1.40;;
11535;SDS011;5824;49.336;8.652;2023-11-21T04:01:22;2.33;;;1.40;;
11535;SDS011;5824;49.336;8.652;2023-11-21T04:03:48;4.57;;;1.50;;
11535;SDS011;5824;49.336;8.652;2023-11-21T04:06:14;4.73;;;1.97;;
11535;SDS011;5824;49.336;8.652;2023-11-21T04:08:40;2.37;;;1.50;;
11535;SDS011;5824;49.336;8.652;2023-11-21T04:11:05;5.60;;;1.80;;
11535;SDS011;5824;49.336;8.652;2023-11-21T04:13:31;5.93;;;1.50;;
11535;SDS011;5824;49.336;8.652;2023-11-21T04:15:56;2.70;;;1.83;;
11535;SDS011;5824;49.336;8.652;2023-11-21T04:18:22;4.90;;;1.87;;
11535;SDS011;5824;49.336;8.652;2023-11-21T04:20:50;1.90;;;1.20;;
11535;SDS011;5824;49.336;8.652;2023-11-21T04:23:16;3.40;;;2.00;;
11535;SDS011;5824;49.336;8.652;2023-11-21T04:25:41;3.43;;;1.80;;
11535;SDS011;5824;49.336;8.652;2023-11-21T04:28:07;2.43;;;1.70;;
11535;SDS011;5824;49.336;8.652;2023-11-21T04:30:33;4.13;;;1.80;;
11535;SDS011;5824;49.336;8.652;2023-11-21T04:32:58;1.50;;;1.37;;
11535;SDS011;5824;49.336;8.652;2023-11-21T04:35:24;2.60;;;1.93;;
11535;SDS011;5824;49.336;8.652;2023-11-21T04:37:49;2.63;;;1.70;;
11535;SDS011;5824;49.336;8.652;2023-11-21T04:40:16;3.40;;;1.90;;
11535;SDS011;5824;49.336;8.652;2023-11-21T04:42:41;4.20;;;1.70;;
11535;SDS011;5824;49.336;8.652;2023-11-21T04:45:07;2.00;;;1.50;;
11535;SDS011;5824;49.336;8.652;2023-11-21T04:47:34;2.17;;;1.97;;
11535;SDS011;5824;49.336;8.652;2023-11-21T04:50:00;5.57;;;1.70;;
11535;SDS011;5824;49.336;8.652;2023-11-21T04:52:26;2.17;;;1.63;;
11535;SDS011;5824;49.336;8.652;2023-11-21T04:54:52;6.83;;;2.10;;
11535;SDS011;5824;49.336;8.652;2023-11-21T04:57:19;4.63;;;2.20;;
11535;SDS011;5824;49.336;8.652;2023-11-21T04:59:45;11.23;;;2.00;;
11535;SDS011;5824;49.336;8.652;2023-11-21T05:02:11;2.10;;;1.80;;
11535;SDS011;5824;49.336;8.652;2023-11-21T05:04:37;1.93;;;1.60;;
11535;SDS011;5824;49.336;8.652;2023-11-21T05:07:03;8.17;;;2.50;;
11535;SDS011;5824;49.336;8.652;2023-11-21T05:09:28;2.47;;;1.77;;
11535;SDS011;5824;49.336;8.652;2023-11-21T05:11:57;4.90;;;2.20;;
11535;SDS011;5824;49.336;8.652;2023-11-21T05:14:22;3.10;;;1.57;;
11535;SDS011;5824;49.336;8.652;2023-11-21T05:16:48;5.93;;;1.90;;
11535;SDS011;5824;49.336;8.652;2023-11-21T05:19:15;5.27;;;2.07;;
11535;SDS011;5824;49.336;8.652;2023-11-21T05:21:41;2.93;;;1.70;;
11535;SDS011;5824;49.336;8.652;2023-11-21T05:24:06;7.03;;;1.87;;
11535;SDS011;5824;49.336;8.652;2023-11-21T05:26:32;4.27;;;2.00;;
11535;SDS011;5824;49.336;8.652;2023-11-21T05:28:58;4.00;;;1.93;;
11535;SDS011;5824;49.336;8.652;2023-11-21T05:31:23;4.20;;;2.23;;
11535;SDS011;5824;49.336;8.652;2023-11-21T05:33:49;4.70;;;2.73;;
11535;SDS011;5824;49.336;8.652;2023-11-21T05:36:14;4.97;;;2.23;;
11535;SDS011;5824;49.336;8.652;2023-11-21T05:38:40;3.20;;;2.30;;
11535;SDS011;5824;49.336;8.652;2023-11-21T05:41:06;6.93;;;2.60;;
11535;SDS011;5824;49.336;8.652;2023-11-21T05:43:33;5.00;;;2.67;;
11535;SDS011;5824;49.336;8.652;2023-11-21T05:46:00;2.50;;;1.97;;
11535;SDS011;5824;49.336;8.652;2023-11-21T05:48:26;3.67;;;2.30;;
11535;SDS011;5824;49.336;8.652;2023-11-21T05:50:51;4.30;;;2.30;;
11535;SDS011;5824;49.336;8.652;2023-11-21T05:53:17;4.67;;;2.53;;
11535;SDS011;5824;49.336;8.652;2023-11-21T05:55:43;4.57;;;2.13;;
11535;SDS011;5824;49.336;8.652;2023-11-21T05:58:08;3.97;;;2.50;;
11535;SDS011;5824;49.336;8.652;2023-11-21T06:00:34;7.07;;;2.33;;
11535;SDS011;5824;49.336;8.652;2023-11-21T06:02:59;2.93;;;2.20;;
11535;SDS011;5824;49.336;8.652;2023-11-21T06:05:26;4.47;;;2.40;;
11535;SDS011;5824;49.336;8.652;2023-11-21T06:07:52;3.83;;;2.30;;
11535;SDS011;5824;49.336;8.652;2023-11-21T06:10:22;5.70;;;2.30;;
11535;SDS011;5824;49.336;8.652;2023-11-21T06:12:48;3.83;;;2.50;;
11535;SDS011;5824;49.336;8.652;2023-11-21T06:15:14;3.47;;;2.50;;
11535;SDS011;5824;49.336;8.652;2023-11-21T06:17:40;4.87;;;2.90;;
11535;SDS011;5824;49.336;8.652;2023-11-21T06:20:07;6.53;;;2.43;;
11535;SDS011;5824;49.336;8.652;2023-11-21T06:22:39;4.53;;;2.17;;
11535;SDS011;5824;49.336;8.652;2023-11-21T06:25:07;3.70;;;2.27;;
11535;SDS011;5824;49.336;8.652;2023-11-21T06:27:34;6.20;;;2.30;;
11535;SDS011;5824;49.336;8.652;2023-11-21T06:30:03;5.70;;;2.97;;
11535;SDS011;5824;49.336;8.652;2023-11-21T06:32:29;18.83;;;3.00;;
11535;SDS011;5824;49.336;8.652;2023-11-21T06:34:55;5.13;;;2.70;;
11535;SDS011;5824;49.336;8.652;2023-11-21T06:37:21;5.93;;;2.90;;
11535;SDS011;5824;49.336;8.652;2023-11-21T06:39:48;6.40;;;2.97;;
11535;SDS011;5824;49.336;8.652;2023-11-21T06:42:14;3.70;;;2.50;;
11535;SDS011;5824;49.336;8.652;2023-11-21T06:44:40;4.70;;;2.93;;
11535;SDS011;5824;49.336;8.652;2023-11-21T06:47:06;6.47;;;2.97;;
11535;SDS011;5824;49.336;8.652;2023-11-21T06:49:32;5.37;;;2.90;;
11535;SDS011;5824;49.336;8.652;2023-11-21T06:51:57;4.20;;;3.00;;
11535;SDS011;5824;49.336;8.652;2023-11-21T06:54:23;3.70;;;2.80;;
11535;SDS011;5824;49.336;8.652;2023-11-21T06:56:49;4.47;;;2.80;;
11535;SDS011;5824;49.336;8.652;2023-11-21T06:59:15;8.53;;;3.33;;
11535;SDS011;5824;49.336;8.652;2023-11-21T07:01:41;4.83;;;2.80;;
11535;SDS011;5824;49.336;8.652;2023-11-21T07:04:06;9.47;;;3.93;;
11535;SDS011;5824;49.336;8.652;2023-11-21T07:06:32;5.40;;;3.00;;
11535;SDS011;5824;49.336;8.652;2023-11-21T07:08:58;6.50;;;3.30;;
11535;SDS011;5824;49.336;8.652;2023-11-21T07:11:24;5.70;;;3.37;;
11535;SDS011;5824;49.336;8.652;2023-11-21T07:13:50;4.37;;;3.23;;
11535;SDS011;5824;49.336;8.652;2023-11-21T07:16:17;6.80;;;3.60;;
11535;SDS011;5824;49.336;8.652;2023-11-21T07:18:43;7.13;;;3.87;;
11535;SDS011;5824;49.336;8.652;2023-11-21T07:21:09;7.57;;;4.10;;
11535;SDS011;5824;49.336;8.652;2023-11-21T07:23:37;6.00;;;3.40;;
11535;SDS011;5824;49.336;8.652;2023-11-21T07:26:03;8.17;;;3.77;;
11535;SDS011;5824;49.336;8.652;2023-11-21T07:28:33;5.90;;;4.40;;
11535;SDS011;5824;49.336;8.652;2023-11-21T07:30:59;5.97;;;3.60;;
11535;SDS011;5824;49.336;8.652;2023-11-21T07:33:25;8.90;;;4.10;;
11535;SDS011;5824;49.336;8.652;2023-11-21T07:35:50;9.40;;;4.10;;
11535;SDS011;5824;49.336;8.652;2023-11-21T07:38:16;5.97;;;3.80;;
11535;SDS011;5824;49.336;8.652;2023-11-21T07:40:42;4.63;;;3.60;;
11535;SDS011;5824;49.336;8.652;2023-11-21T07:43:08;5.97;;;3.90;;
11535;SDS011;5824;49.336;8.652;2023-11-21T07:45:34;7.30;;;4.47;;
11535;SDS011;5824;49.336;8.652;2023-11-21T07:47:59;10.03;;;4.70;;
11535;SDS011;5824;49.336;8.652;2023-11-21T07:50:28;9.50;;;4.47;;
11535;SDS011;5824;49.336;8.652;2023-11-21T07:52:53;6.47;;;4.03;;
11535;SDS011;5824;49.336;8.652;2023-11-21T07:55:19;9.60;;;4.83;;
11535;SDS011;5824;49.336;8.652;2023-11-21T07:57:45;10.33;;;4.70;;
11535;SDS011;5824;49.336;8.652;2023-11-21T08:00:11;6.50;;;4.50;;
11535;SDS011;5824;49.336;8.652;2023-11-21T08:02:37;8.83;;;5.07;;
11535;SDS011;5824;49.336;8.652;2023-11-21T08:05:10;15.23;;;6.23;;
11535;SDS011;5824;49.336;8.652;2023-11-21T08:07:37;10.33;;;5.70;;
11535;SDS011;5824;49.336;8.652;2023-11-21T08:10:02;12.03;;;6.17;;
11535;SDS011;5824;49.336;8.652;2023-11-21T08:12:29;10.13;;;6.17;;
11535;SDS011;5824;49.336;8.652;2023-11-21T08:14:55;14.13;;;6.43;;
11535;SDS011;5824;49.336;8.652;2023-11-21T08:17:21;16.20;;;7.27;;
11535;SDS011;5824;49.336;8.652;2023-11-21T08:19:46;13.00;;;6.90;;
11535;SDS011;5824;49.336;8.652;2023-11-21T08:22:14;21.33;;;8.23;;
11535;SDS011;5824;49.336;8.652;2023-11-21T08:24:42;12.80;;;6.90;;
11535;SDS011;5824;49.336;8.652;2023-11-21T08:27:07;11.13;;;6.60;;
11535;SDS011;5824;49.336;8.652;2023-11-21T08:29:33;12.17;;;7.20;;
11535;SDS011;5824;49.336;8.652;2023-11-21T08:31:59;15.40;;;6.70;;
11535;SDS011;5824;49.336;8.652;2023-11-21T08:34:25;14.30;;;7.57;;
11535;SDS011;5824;49.336;8.652;2023-11-21T08:36:50;13.30;;;7.30;;
11535;SDS011;5824;49.336;8.652;2023-11-21T08:39:16;15.30;;;6.50;;
11535;SDS011;5824;49.336;8.652;2023-11-21T08:41:43;10.57;;;6.30;;
11535;SDS011;5824;49.336;8.652;2023-11-21T08:44:09;12.03;;;6.70;;
11535;SDS011;5824;49.336;8.652;2023-11-21T08:46:35;15.80;;;6.70;;
11535;SDS011;5824;49.336;8.652;2023-11-21T08:49:02;13.13;;;6.40;;
11535;SDS011;5824;49.336;8.652;2023-11-21T08:51:28;13.67;;;6.10;;
11535;SDS011;5824;49.336;8.652;2023-11-21T08:53:54;13.00;;;6.87;;
11535;SDS011;5824;49.336;8.652;2023-11-21T08:56:24;11.83;;;6.57;;
11535;SDS011;5824;49.336;8.652;2023-11-21T08:58:49;20.30;;;6.30;;
11535;SDS011;5824;49.336;8.652;2023-11-21T09:01:15;12.43;;;6.03;;
11535;SDS011;5824;49.336;8.652;2023-11-21T09:03:41;8.60;;;5.30;;
11535;SDS011;5824;49.336;8.652;2023-11-21T09:06:08;13.43;;;5.83;;
11535;SDS011;5824;49.336;8.652;2023-11-21T09:08:34;9.23;;;5.10;;
11535;SDS011;5824;49.336;8.652;2023-11-21T09:11:00;12.70;;;5.40;;
11535;SDS011;5824;49.336;8.652;2023-11-21T09:13:25;10.33;;;5.70;;
11535;SDS011;5824;49.336;8.652;2023-11-21T09:15:51;9.20;;;4.97;;
11535;SDS011;5824;49.336;8.652;2023-11-21T09:18:17;8.40;;;4.60;;
11535;SDS011;5824;49.336;8.652;2023-11-21T09:20:42;7.50;;;4.80;;
11535;SDS011;5824;49.336;8.652;2023-11-21T09:23:09;8.47;;;4.40;;
11535;SDS011;5824;49.336;8.652;2023-11-21T09:25:35;10.73;;;4.17;;
11535;SDS011;5824;49.336;8.652;2023-11-21T09:28:02;6.30;;;4.10;;
11535;SDS011;5824;49.336;8.652;2023-11-21T09:30:32;8.00;;;4.60;;
11535;SDS011;5824;49.336;8.652;2023-11-21T09:32:58;6.57;;;4.60;;
11535;SDS011;5824;49.336;8.652;2023-11-21T09:35:24;5.30;;;3.40;;
11535;SDS011;5824;49.336;8.652;2023-11-21T09:37:50;5.50;;;3.60;;
11535;SDS011;5824;49.336;8.652;2023-11-21T09:40:17;6.27;;;4.10;;
11535;SDS011;5824;49.336;8.652;2023-11-21T09:42:56;5.70;;;3.87;;
11535;SDS011;5824;49.336;8.652;2023-11-21T09:45:27;5.77;;;3.63;;
11535;SDS011;5824;49.336;8.652;2023-11-21T09:47:54;5.60;;;3.80;;
11535;SDS011;5824;49.336;8.652;2023-11-21T09:50:21;4.20;;;3.17;;
11535;SDS011;5824;49.336;8.652;2023-11-21T09:52:58;8.70;;;4.50;;
11535;SDS011;5824;49.336;8.652;2023-11-21T09:55:47;6.07;;;4.47;;
11535;SDS011;5824;49.336;8.652;2023-11-21T09:58:16;5.57;;;3.23;;
11535;SDS011;5824;49.336;8.652;2023-11-21T10:00:43;7.97;;;3.20;;
11535;SDS011;5824;49.336;8.652;2023-11-21T10:03:10;8.47;;;5.30;;
11535;SDS011;5824;49.336;8.652;2023-11-21T10:05:36;7.70;;;3.83;;
11535;SDS011;5824;49.336;8.652;2023-11-21T10:08:04;19.70;;;5.10;;
11535;SDS011;5824;49.336;8.652;2023-11-21T10:10:33;7.73;;;4.60;;
11535;SDS011;5824;49.336;8.652;2023-11-21T10:13:00;9.60;;;4.50;;
11535;SDS011;5824;49.336;8.652;2023-11-21T10:15:31;7.03;;;4.60;;
11535;SDS011;5824;49.336;8.652;2023-11-21T10:17:59;8.93;;;3.60;;
11535;SDS011;5824;49.336;8.652;2023-11-21T10:20:27;5.07;;;3.70;;
11535;SDS011;5824;49.336;8.652;2023-11-21T10:22:54;6.00;;;3.20;;
11535;SDS011;5824;49.336;8.652;2023-11-21T10:25:21;5.50;;;3.00;;
11535;SDS011;5824;49.336;8.652;2023-11-21T10:27:48;4.50;;;3.40;;
11535;SDS011;5824;49.336;8.652;2023-11-21T10:30:16;3.80;;;2.60;;
11535;SDS011;5824;49.336;8.652;2023-11-21T10:32:42;3.73;;;2.67;;
11535;SDS011;5824;49.336;8.652;2023-11-21T10:35:09;4.47;;;2.43;;
11535;SDS011;5824;49.336;8.652;2023-11-21T10:37:36;3.30;;;2.70;;
11535;SDS011;5824;49.336;8.652;2023-11-21T10:40:06;4.20;;;2.87;;
11535;SDS011;5824;49.336;8.652;2023-11-21T10:42:33;4.40;;;3.10;;
11535;SDS011;5824;49.336;8.652;2023-11-21T10:44:58;3.90;;;2.70;;
11535;SDS011;5824;49.336;8.652;2023-11-21T10:47:25;5.70;;;3.37;;
11535;SDS011;5824;49.336;8.652;2023-11-21T10:49:51;4.00;;;3.10;;
11535;SDS011;5824;49.336;8.652;2023-11-21T10:52:20;5.90;;;3.70;;
11535;SDS011;5824;49.336;8.652;2023-11-21T10:54:46;6.20;;;3.97;;
11535;SDS011;5824;49.336;8.652;2023-11-21T10:57:12;7.17;;;3.43;;
11535;SDS011;5824;49.336;8.652;2023-11-21T10:59:42;4.73;;;3.33;;
11535;SDS011;5824;49.336;8.652;2023-11-21T11:02:24;5.57;;;3.40;;
11535;SDS011;5824;49.336;8.652;2023-11-21T11:04:52;6.90;;;3.93;;
11535;SDS011;5824;49.336;8.652;2023-11-21T11:07:20;6.63;;;3.97;;
11535;SDS011;5824;49.336;8.652;2023-11-21T11:09:49;8.20;;;4.60;;
11535;SDS011;5824;49.336;8.652;2023-11-21T11:12:15;9.13;;;4.70;;
11535;SDS011;5824;49.336;8.652;2023-11-21T11:14:42;8.90;;;4.40;;
11535;SDS011;5824;49.336;8.652;2023-11-21T11:17:09;6.37;;;4.27;;
11535;SDS011;5824;49.336;8.652;2023-11-21T11:19:35;8.80;;;4.20;;
11535;SDS011;5824;49.336;8.652;2023-11-21T11:34:13;10.97;;;5.07;;
11535;SDS011;5824;49.336;8.652;2023-11-21T11:38:57;10.03;;;4.80;;
11535;SDS011;5824;49.336;8.652;2023-11-21T11:41:24;7.90;;;4.30;;
11535;SDS011;5824;49.336;8.652;2023-11-21T11:43:52;6.90;;;4.23;;
11535;SDS011;5824;49.336;8.652;2023-11-21T11:46:18;8.80;;;4.47;;
11535;SDS011;5824;49.336;8.652;2023-11-21T11:48:46;6.63;;;4.40;;
11535;SDS011;5824;49.336;8.652;2023-11-21T11:51:14;6.03;;;3.40;;
11535;SDS011;5824;49.336;8.652;2023-11-21T11:53:42;5.60;;;3.33;;
11535;SDS011;5824;49.336;8.652;2023-11-21T11:56:27;6.20;;;3.20;;
11535;SDS011;5824;49.336;8.652;2023-11-21T11:58:56;10.50;;;3.67;;
11535;SDS011;5824;49.336;8.652;2023-11-21T12:01:24;7.50;;;3.70;;
11535;SDS011;5824;49.336;8.652;2023-11-21T12:04:23;5.40;;;3.67;;
11535;SDS011;5824;49.336;8.652;2023-11-21T12:06:45;6.07;;;3.57;;
11535;SDS011;5824;49.336;8.652;2023-11-21T12:09:21;7.57;;;4.00;;
11535;SDS011;5824;49.336;8.652;2023-11-21T12:11:48;6.07;;;3.57;;
11535;SDS011;5824;49.336;8.652;2023-11-21T12:14:15;8.20;;;4.53;;
11535;SDS011;5824;49.336;8.652;2023-11-21T12:16:42;4.90;;;3.50;;
11535;SDS011;5824;49.336;8.652;2023-11-21T12:19:11;7.00;;;3.90;;
11535;SDS011;5824;49.336;8.652;2023-11-21T12:21:37;5.53;;;3.80;;
11535;SDS011;5824;49.336;8.652;2023-11-21T12:24:03;6.73;;;4.40;;
11535;SDS011;5824;49.336;8.652;2023-11-21T12:26:29;11.70;;;5.30;;
11535;SDS011;5824;49.336;8.652;2023-11-21T12:28:54;16.70;;;5.77;;
11535;SDS011;5824;49.336;8.652;2023-11-21T12:31:23;8.20;;;4.10;;
11535;SDS011;5824;49.336;8.652;2023-11-21T12:33:48;5.90;;;3.93;;
11535;SDS011;5824;49.336;8.652;2023-11-21T12:36:14;7.33;;;4.10;;
11535;SDS011;5824;49.336;8.652;2023-11-21T12:38:41;9.53;;;4.70;;
11535;SDS011;5824;49.336;8.652;2023-11-21T12:41:07;8.40;;;4.83;;
11535;SDS011;5824;49.336;8.652;2023-11-21T12:43:32;10.63;;;4.93;;
11535;SDS011;5824;49.336;8.652;2023-11-21T12:46:12;8.53;;;4.53;;
11535;SDS011;5824;49.336;8.652;2023-11-21T12:48:38;14.80;;;5.90;;
11535;SDS011;5824;49.336;8.652;2023-11-21T12:51:08;18.80;;;6.27;;
11535;SDS011;5824;49.336;8.652;2023-11-21T12:53:36;8.23;;;4.50;;
11535;SDS011;5824;49.336;8.652;2023-11-21T12:56:06;7.17;;;3.87;;
11535;SDS011;5824;49.336;8.652;2023-11-21T12:58:34;5.20;;;3.60;;
11535;SDS011;5824;49.336;8.652;2023-11-21T13:01:01;5.83;;;3.80;;
11535;SDS011;5824;49.336;8.652;2023-11-21T13:03:29;4.80;;;3.80;;
11535;SDS011;5824;49.336;8.652;2023-11-21T13:05:55;7.03;;;4.23;;
11535;SDS011;5824;49.336;8.652;2023-11-21T13:08:22;5.50;;;3.80;;
11535;SDS011;5824;49.336;8.652;2023-11-21T13:10:50;6.87;;;4.00;;
11535;SDS011;5824;49.336;8.652;2023-11-21T13:13:17;7.80;;;4.17;;
11535;SDS011;5824;49.336;8.652;2023-11-21T13:18:21;4.77;;;3.00;;
11535;SDS011;5824;49.336;8.652;2023-11-21T13:20:47;4.83;;;3.30;;
11535;SDS011;5824;49.336;8.652;2023-11-21T13:23:13;7.57;;;3.77;;
11535;SDS011;5824;49.336;8.652;2023-11-21T13:25:41;5.23;;;3.70;;
11535;SDS011;5824;49.336;8.652;2023-11-21T13:28:13;5.27;;;3.57;;
11535;SDS011;5824;49.336;8.652;2023-11-21T13:30:48;6.17;;;3.53;;
11535;SDS011;5824;49.336;8.652;2023-11-21T13:33:17;7.93;;;3.80;;
11535;SDS011;5824;49.336;8.652;2023-11-21T13:35:46;8.67;;;3.90;;
11535;SDS011;5824;49.336;8.652;2023-11-21T13:38:15;4.40;;;3.30;;
11535;SDS011;5824;49.336;8.652;2023-11-21T13:40:42;5.47;;;3.60;;
11535;SDS011;5824;49.336;8.652;2023-11-21T13:43:14;10.80;;;3.50;;
11535;SDS011;5824;49.336;8.652;2023-11-21T13:45:46;9.07;;;4.30;;
11535;SDS011;5824;49.336;8.652;2023-11-21T13:48:16;5.47;;;3.40;;
11535;SDS011;5824;49.336;8.652;2023-11-21T13:50:50;4.73;;;3.40;;
11535;SDS011;5824;49.336;8.652;2023-11-21T13:53:24;4.87;;;3.60;;
11535;SDS011;5824;49.336;8.652;2023-11-21T13:55:50;5.40;;;3.07;;
11535;SDS011;5824;49.336;8.652;2023-11-21T13:58:19;7.93;;;3.00;;
11535;SDS011;5824;49.336;8.652;2023-11-21T14:00:49;5.70;;;3.50;;
11535;SDS011;5824;49.336;8.652;2023-11-21T14:03:22;6.00;;;3.50;;
11535;SDS011;5824;49.336;8.652;2023-11-21T14:05:57;5.40;;;3.20;;
11535;SDS011;5824;49.336;8.652;2023-11-21T14:08:25;7.07;;;3.30;;
11535;SDS011;5824;49.336;8.652;2023-11-21T14:10:53;4.10;;;3.40;;
11535;SDS011;5824;49.336;8.652;2023-11-21T14:13:24;5.23;;;3.00;;
11535;SDS011;5824;49.336;8.652;2023-11-21T14:15:50;5.40;;;3.30;;
11535;SDS011;5824;49.336;8.652;2023-11-21T14:18:24;6.80;;;3.17;;
11535;SDS011;5824;49.336;8.652;2023-11-21T14:21:00;6.30;;;2.80;;
11535;SDS011;5824;49.336;8.652;2023-11-21T14:23:26;5.70;;;3.30;;
11535;SDS011;5824;49.336;8.652;2023-11-21T14:25:53;5.20;;;2.93;;
11535;SDS011;5824;49.336;8.652;2023-11-21T14:28:19;4.97;;;3.10;;
11535;SDS011;5824;49.336;8.652;2023-11-21T14:30:45;7.60;;;2.93;;
11535;SDS011;5824;49.336;8.652;2023-11-21T14:33:11;8.50;;;3.27;;
11535;SDS011;5824;49.336;8.652;2023-11-21T14:35:37;5.97;;;2.80;;
11535;SDS011;5824;49.336;8.652;2023-11-21T14:38:03;4.30;;;2.67;;
11535;SDS011;5824;49.336;8.652;2023-11-21T14:40:32;6.83;;;3.10;;
11535;SDS011;5824;49.336;8.652;2023-11-21T14:43:02;4.10;;;2.87;;
11535;SDS011;5824;49.336;8.652;2023-11-21T14:45:32;5.10;;;3.10;;
11535;SDS011;5824;49.336;8.652;2023-11-21T14:47:58;7.73;;;3.20;;
11535;SDS011;5824;49.336;8.652;2023-11-21T14:50:41;5.90;;;3.00;;
11535;SDS011;5824;49.336;8.652;2023-11-21T14:53:07;7.67;;;3.30;;
11535;SDS011;5824;49.336;8.652;2023-11-21T14:55:34;4.70;;;3.60;;
11535;SDS011;5824;49.336;8.652;2023-11-21T14:58:20;4.60;;;2.60;;
11535;SDS011;5824;49.336;8.652;2023-11-21T15:01:01;5.23;;;3.30;;
11535;SDS011;5824;49.336;8.652;2023-11-21T15:03:27;5.70;;;3.10;;
11535;SDS011;5824;49.336;8.652;2023-11-21T15:05:56;3.80;;;2.50;;
11535;SDS011;5824;49.336;8.652;2023-11-21T15:08:23;5.77;;;3.13;;
11535;SDS011;5824;49.336;8.652;2023-11-21T15:10:56;5.50;;;3.33;;
11535;SDS011;5824;49.336;8.652;2023-11-21T15:13:22;6.40;;;3.33;;
11535;SDS011;5824;49.336;8.652;2023-11-21T15:15:49;5.50;;;3.00;;
11535;SDS011;5824;49.336;8.652;2023-11-21T15:18:15;4.57;;;3.00;;